Time;durP1;ratioP1;P1;durP2;ratioP2;P2;SDS_P1;SDS_P2;PMS_P1;PMS_P2;Temp;Humidity;BMP_temperature;BMP_pressure;BME280_temperature;BME280_humidity;BME280_pressure;Samples;Min_cycle;Max_cycle;Signal;HPM_P1;HPM_P2
2021/10/05 00:00:41;;;;;;;4.50;3.20;;;15.90;99.90;;;;;;5005580;28;20267;-76
2021/10/05 00:03:07;;;;;;;3.60;3.13;;;15.80;99.90;;;;;;5022066;28;20196;-75
2021/10/05 00:05:33;;;;;;;4.10;3.30;;;15.80;99.90;;;;;;5006003;28;20291;-75
2021/10/05 00:07:59;;;;;;;5.27;3.30;;;15.90;99.90;;;;;;5020769;28;20301;-76
2021/10/05 00:10:24;;;;;;;3.40;3.00;;;15.80;99.90;;;;;;4988144;28;21345;-76
2021/10/05 00:12:50;;;;;;;3.67;2.90;;;15.80;99.90;;;;;;5019325;28;20207;-77
2021/10/05 00:15:16;;;;;;;3.37;2.97;;;15.80;99.90;;;;;;5022547;28;20291;-74
2021/10/05 00:17:43;;;;;;;3.50;3.20;;;15.90;99.90;;;;;;5022372;28;20502;-77
2021/10/05 00:20:10;;;;;;;3.93;2.97;;;15.90;99.90;;;;;;5022809;28;20527;-71
2021/10/05 00:22:36;;;;;;;3.47;3.17;;;15.80;99.90;;;;;;5023254;28;20489;-74
2021/10/05 00:25:03;;;;;;;4.20;2.90;;;15.80;99.90;;;;;;5033739;28;20432;-75
2021/10/05 00:27:29;;;;;;;4.33;3.53;;;15.90;99.90;;;;;;5038420;28;21136;-75
2021/10/05 00:29:55;;;;;;;4.23;3.30;;;15.90;99.90;;;;;;5016367;28;20462;-75
2021/10/05 00:32:21;;;;;;;4.47;3.43;;;15.90;99.90;;;;;;5029253;28;20672;-75
2021/10/05 00:34:46;;;;;;;8.60;4.07;;;15.80;99.90;;;;;;5030295;28;20244;-74
2021/10/05 00:37:12;;;;;;;4.00;3.60;;;15.80;99.90;;;;;;5031419;28;20208;-75
2021/10/05 00:39:37;;;;;;;3.60;3.20;;;15.80;99.90;;;;;;5028386;28;20256;-75
2021/10/05 00:42:04;;;;;;;4.30;3.40;;;15.70;99.90;;;;;;5005104;28;20279;-75
2021/10/05 00:44:31;;;;;;;4.43;3.70;;;15.60;99.90;;;;;;5022260;28;20181;-75
2021/10/05 00:47:00;;;;;;;4.40;4.00;;;15.60;99.90;;;;;;5018561;28;20501;-76
2021/10/05 00:49:26;;;;;;;6.47;4.80;;;15.60;99.90;;;;;;5020147;28;20447;-75
2021/10/05 00:51:52;;;;;;;9.93;4.30;;;15.50;99.90;;;;;;5021155;28;20435;-75
2021/10/05 00:54:18;;;;;;;6.53;4.40;;;15.50;99.90;;;;;;5020077;28;20220;-75
2021/10/05 00:56:43;;;;;;;5.03;4.53;;;15.60;99.90;;;;;;5015899;28;20537;-75
2021/10/05 00:59:09;;;;;;;4.97;4.40;;;15.60;99.90;;;;;;5023628;28;20246;-75
2021/10/05 01:01:35;;;;;;;5.50;4.97;;;15.60;99.90;;;;;;5020036;28;20271;-76
2021/10/05 01:04:00;;;;;;;4.57;4.10;;;15.60;99.90;;;;;;5018588;28;20194;-75
2021/10/05 01:06:26;;;;;;;6.70;5.10;;;15.60;99.90;;;;;;5003880;28;20197;-75
2021/10/05 01:08:51;;;;;;;4.40;4.00;;;15.50;99.90;;;;;;5018355;28;20562;-74
2021/10/05 01:11:17;;;;;;;5.23;4.73;;;15.60;99.90;;;;;;5020638;28;20192;-74
2021/10/05 01:13:43;;;;;;;8.17;4.47;;;15.40;99.90;;;;;;5002874;28;20343;-74
2021/10/05 01:16:08;;;;;;;7.10;4.87;;;15.40;99.90;;;;;;5021844;28;20684;-74
2021/10/05 01:18:34;;;;;;;4.63;4.10;;;15.30;99.90;;;;;;5026123;28;20291;-74
2021/10/05 01:21:03;;;;;;;6.27;5.27;;;15.40;99.90;;;;;;5023412;28;20215;-73
2021/10/05 01:23:29;;;;;;;11.10;4.70;;;15.40;99.90;;;;;;5028624;28;20201;-74
2021/10/05 01:25:55;;;;;;;6.10;5.10;;;15.40;99.90;;;;;;5024911;28;20484;-74
2021/10/05 01:28:22;;;;;;;5.23;4.73;;;15.30;99.90;;;;;;5024231;28;20467;-75
2021/10/05 01:30:49;;;;;;;7.00;5.20;;;15.40;99.90;;;;;;5023987;28;20504;-75
2021/10/05 01:33:15;;;;;;;11.03;5.77;;;15.40;99.90;;;;;;5009018;28;20447;-75
2021/10/05 01:35:41;;;;;;;7.00;5.67;;;15.40;99.90;;;;;;5024979;28;21266;-75
2021/10/05 01:38:07;;;;;;;11.57;5.20;;;15.40;99.90;;;;;;5024307;28;20467;-74
2021/10/05 01:40:32;;;;;;;6.13;5.07;;;15.40;99.90;;;;;;5027668;28;20193;-75
2021/10/05 01:42:58;;;;;;;10.93;6.50;;;15.20;99.90;;;;;;5021693;28;20193;-74
2021/10/05 01:45:24;;;;;;;5.30;4.47;;;15.20;99.90;;;;;;5026146;28;20668;-75
2021/10/05 01:47:50;;;;;;;5.43;4.93;;;15.40;99.90;;;;;;5023283;28;20213;-74
2021/10/05 01:50:15;;;;;;;4.80;4.40;;;15.20;99.90;;;;;;5025513;28;20342;-75
2021/10/05 01:52:41;;;;;;;6.20;5.17;;;15.20;99.90;;;;;;5025396;28;20211;-74
2021/10/05 01:55:09;;;;;;;6.40;5.00;;;15.30;99.90;;;;;;5021878;28;20208;-74
2021/10/05 01:57:34;;;;;;;12.40;5.00;;;15.30;99.90;;;;;;5024185;28;20196;-74
2021/10/05 02:00:00;;;;;;;5.50;4.60;;;15.20;99.90;;;;;;5025811;28;20431;-74
2021/10/05 02:02:26;;;;;;;5.70;5.20;;;15.30;99.90;;;;;;5022067;28;20195;-74
2021/10/05 02:04:52;;;;;;;6.90;5.90;;;15.30;99.90;;;;;;5024090;28;20188;-74
2021/10/05 02:07:17;;;;;;;6.60;5.90;;;15.30;99.90;;;;;;5023078;28;20270;-74
2021/10/05 02:09:47;;;;;;;6.80;5.80;;;15.40;99.90;;;;;;5021179;28;20470;-73
2021/10/05 02:12:15;;;;;;;5.70;5.20;;;15.50;99.90;;;;;;5023586;28;20192;-74
2021/10/05 02:14:44;;;;;;;5.83;5.23;;;15.40;99.90;;;;;;5023231;28;20478;-75
2021/10/05 02:17:09;;;;;;;7.40;5.53;;;15.40;99.90;;;;;;5025063;28;20450;-74
2021/10/05 02:19:36;;;;;;;6.97;5.27;;;15.40;99.90;;;;;;5025391;28;20443;-74
2021/10/05 02:22:02;;;;;;;6.20;5.27;;;15.40;99.90;;;;;;5020818;28;20199;-75
2021/10/05 02:26:56;;;;;;;5.80;5.20;;;15.40;99.90;;;;;;5006511;28;20203;-75
2021/10/05 02:29:22;;;;;;;8.03;5.83;;;15.40;99.90;;;;;;5021515;28;20200;-74
2021/10/05 02:31:49;;;;;;;6.60;6.00;;;15.40;99.90;;;;;;5008257;28;21040;-73
2021/10/05 02:34:15;;;;;;;7.20;6.50;;;15.10;99.90;;;;;;5021875;28;20831;-73
2021/10/05 02:36:42;;;;;;;7.47;6.60;;;15.10;99.90;;;;;;5021486;28;21123;-71
2021/10/05 02:39:09;;;;;;;7.03;6.37;;;15.20;99.90;;;;;;5025311;28;20477;-73
2021/10/05 02:41:35;;;;;;;15.03;6.57;;;15.30;99.90;;;;;;5024232;28;20431;-74
2021/10/05 02:44:02;;;;;;;7.07;6.37;;;15.30;99.90;;;;;;5021191;28;20544;-73
2021/10/05 02:46:28;;;;;;;8.43;6.43;;;15.30;99.90;;;;;;5027294;28;20724;-74
2021/10/05 02:48:53;;;;;;;9.50;6.70;;;15.40;99.90;;;;;;5023357;28;20554;-74
2021/10/05 02:51:19;;;;;;;8.03;6.80;;;15.40;99.90;;;;;;5022875;28;20246;-74
2021/10/05 02:53:45;;;;;;;11.93;6.40;;;15.50;99.90;;;;;;5025265;28;20247;-75
2021/10/05 02:56:10;;;;;;;7.80;7.00;;;15.50;99.90;;;;;;5023059;28;20474;-74
2021/10/05 02:58:36;;;;;;;6.83;6.13;;;15.50;99.90;;;;;;5024928;28;20220;-75
2021/10/05 03:01:02;;;;;;;7.63;6.83;;;15.40;99.90;;;;;;5020983;28;20292;-76
2021/10/05 03:03:27;;;;;;;9.27;7.10;;;15.40;99.90;;;;;;5021858;28;20271;-76
2021/10/05 03:05:53;;;;;;;7.90;6.97;;;15.40;99.90;;;;;;5023329;28;20220;-76
2021/10/05 03:08:19;;;;;;;7.83;6.37;;;15.40;99.90;;;;;;5020248;28;20702;-75
2021/10/05 03:10:45;;;;;;;7.80;6.33;;;15.40;99.90;;;;;;5024945;28;20564;-74
2021/10/05 03:13:10;;;;;;;7.60;6.80;;;15.30;99.90;;;;;;5024398;28;20579;-73
2021/10/05 03:15:36;;;;;;;8.80;6.80;;;15.30;99.90;;;;;;5020332;28;20188;-74
2021/10/05 03:18:01;;;;;;;9.43;7.27;;;15.40;99.90;;;;;;5019735;28;20355;-75
2021/10/05 03:20:27;;;;;;;8.10;7.30;;;15.40;99.90;;;;;;5022101;28;20177;-74
2021/10/05 03:22:53;;;;;;;9.47;7.10;;;15.40;99.90;;;;;;5020754;28;20195;-74
2021/10/05 03:25:19;;;;;;;8.47;7.67;;;15.40;99.90;;;;;;5022458;28;20212;-74
2021/10/05 03:27:44;;;;;;;8.13;7.23;;;15.40;99.90;;;;;;5023389;28;20219;-75
2021/10/05 03:30:11;;;;;;;8.97;8.07;;;15.50;99.90;;;;;;5023310;28;20246;-74
2021/10/05 03:32:36;;;;;;;8.50;7.60;;;15.40;99.90;;;;;;5023679;28;20179;-75
2021/10/05 03:35:03;;;;;;;11.10;7.83;;;15.40;99.90;;;;;;5021280;28;20471;-75
2021/10/05 03:37:29;;;;;;;12.63;7.77;;;15.50;99.90;;;;;;5021347;28;20251;-75
2021/10/05 03:39:55;;;;;;;8.33;7.53;;;15.50;99.90;;;;;;5020166;28;21511;-74
2021/10/05 03:42:20;;;;;;;8.60;7.70;;;15.40;99.90;;;;;;5021696;28;20215;-75
2021/10/05 03:44:46;;;;;;;9.70;7.60;;;15.40;99.90;;;;;;5022768;28;20200;-74
2021/10/05 03:47:12;;;;;;;10.90;8.97;;;15.20;99.90;;;;;;5023127;28;20223;-75
2021/10/05 03:49:37;;;;;;;8.57;7.67;;;15.20;99.90;;;;;;5021782;28;20275;-74
2021/10/05 03:52:03;;;;;;;10.37;8.10;;;15.30;99.90;;;;;;5008219;28;20199;-74
2021/10/05 03:54:29;;;;;;;10.40;8.17;;;15.40;99.90;;;;;;5020622;28;20712;-74
2021/10/05 03:56:55;;;;;;;10.10;7.60;;;15.40;99.90;;;;;;5022162;28;20446;-74
2021/10/05 03:59:21;;;;;;;11.07;9.63;;;15.20;99.90;;;;;;5024187;28;20659;-74
2021/10/05 04:01:47;;;;;;;15.47;9.17;;;15.20;99.90;;;;;;5020225;28;20946;-74
2021/10/05 04:04:13;;;;;;;10.47;9.20;;;15.00;99.90;;;;;;5020316;28;20224;-73
2021/10/05 04:06:40;;;;;;;10.70;8.37;;;15.10;99.90;;;;;;5022213;28;20493;-74
2021/10/05 04:09:06;;;;;;;10.37;8.70;;;15.30;99.90;;;;;;5021224;28;20557;-74
2021/10/05 04:11:35;;;;;;;9.63;8.63;;;15.20;99.90;;;;;;5021487;28;20518;-75
2021/10/05 04:14:01;;;;;;;8.93;8.03;;;15.20;99.90;;;;;;5021476;28;20236;-76
2021/10/05 04:16:27;;;;;;;10.47;8.57;;;15.10;99.90;;;;;;5019394;28;20456;-75
2021/10/05 04:18:52;;;;;;;11.23;9.00;;;15.00;99.90;;;;;;5024320;28;20459;-73
2021/10/05 04:21:19;;;;;;;12.53;9.80;;;15.20;99.90;;;;;;5020669;28;20282;-72
2021/10/05 04:23:45;;;;;;;11.67;9.40;;;15.20;99.90;;;;;;5022153;28;20279;-72
2021/10/05 04:26:10;;;;;;;12.60;10.40;;;15.20;99.90;;;;;;5023204;28;20853;-74
2021/10/05 04:28:36;;;;;;;11.23;9.00;;;15.20;99.90;;;;;;5020728;28;20578;-74
2021/10/05 04:31:02;;;;;;;9.80;8.83;;;15.30;99.90;;;;;;5017972;28;20197;-73
2021/10/05 04:33:28;;;;;;;12.50;10.40;;;15.20;99.90;;;;;;5023315;28;20192;-74
2021/10/05 04:35:53;;;;;;;10.83;9.73;;;15.20;99.90;;;;;;5022640;28;20455;-74
2021/10/05 04:38:19;;;;;;;11.17;10.03;;;15.20;99.90;;;;;;5018951;28;20216;-74
2021/10/05 04:40:45;;;;;;;13.27;11.00;;;15.20;99.90;;;;;;5023318;28;20315;-73
2021/10/05 04:43:10;;;;;;;15.77;12.80;;;14.80;99.90;;;;;;5020944;28;20235;-73
2021/10/05 04:45:36;;;;;;;13.40;11.03;;;14.50;99.90;;;;;;5022774;28;20282;-71
2021/10/05 04:48:08;;;;;;;16.50;12.10;;;14.40;99.90;;;;;;5022598;28;20239;-73
2021/10/05 04:50:35;;;;;;;16.80;12.20;;;14.20;99.90;;;;;;5021778;28;20250;-73
2021/10/05 04:53:01;;;;;;;15.50;12.23;;;14.10;99.90;;;;;;5024907;28;20433;-73
2021/10/05 04:55:27;;;;;;;16.47;10.97;;;14.10;99.90;;;;;;5027317;28;20558;-71
2021/10/05 04:57:53;;;;;;;16.50;11.73;;;14.20;99.90;;;;;;5023701;28;20470;-75
2021/10/05 05:00:19;;;;;;;16.27;12.43;;;14.00;99.90;;;;;;5009543;28;20431;-72
2021/10/05 05:02:45;;;;;;;16.57;12.03;;;14.00;99.90;;;;;;4989908;28;20187;-72
2021/10/05 05:05:11;;;;;;;19.43;12.97;;;14.00;99.90;;;;;;5025277;28;20663;-73
2021/10/05 05:07:36;;;;;;;16.43;12.43;;;14.00;99.90;;;;;;5023972;28;20230;-72
2021/10/05 05:10:05;;;;;;;17.83;13.20;;;14.00;99.90;;;;;;5005252;28;20893;-72
2021/10/05 05:12:31;;;;;;;17.53;12.83;;;13.90;99.90;;;;;;5008646;28;20192;-71
2021/10/05 05:14:57;;;;;;;15.63;12.10;;;14.00;99.90;;;;;;5007565;28;20515;-69
2021/10/05 05:17:23;;;;;;;15.87;11.70;;;14.10;99.90;;;;;;5008411;28;20235;-69
2021/10/05 05:19:49;;;;;;;18.43;11.77;;;14.20;99.90;;;;;;5024240;28;20438;-75
2021/10/05 05:22:15;;;;;;;16.33;11.60;;;14.30;99.90;;;;;;5025965;28;20951;-74
2021/10/05 05:24:40;;;;;;;14.20;11.03;;;14.40;99.90;;;;;;4992290;28;20193;-74
2021/10/05 05:27:09;;;;;;;13.57;10.47;;;14.50;99.90;;;;;;5007798;28;20185;-73
2021/10/05 05:29:35;;;;;;;13.33;10.37;;;14.40;99.90;;;;;;5022957;28;20200;-75
2021/10/05 05:32:00;;;;;;;11.70;8.87;;;14.30;99.90;;;;;;5021806;28;20522;-75
2021/10/05 05:34:27;;;;;;;13.93;10.50;;;14.30;99.90;;;;;;5024863;28;20703;-75
2021/10/05 05:36:54;;;;;;;12.50;9.00;;;14.40;99.90;;;;;;5024426;28;20193;-76
2021/10/05 05:39:19;;;;;;;11.63;8.93;;;14.50;99.90;;;;;;5021287;28;20443;-75
2021/10/05 05:41:45;;;;;;;14.23;9.90;;;14.40;99.90;;;;;;5024187;28;20469;-76
2021/10/05 05:44:12;;;;;;;10.73;9.20;;;14.30;99.90;;;;;;5018282;28;20228;-70
2021/10/05 05:46:38;;;;;;;12.13;9.13;;;14.40;99.90;;;;;;5019439;28;20291;-74
2021/10/05 05:49:04;;;;;;;12.90;9.43;;;14.20;99.90;;;;;;5025078;28;20459;-75
2021/10/05 05:51:29;;;;;;;19.73;10.67;;;14.20;99.90;;;;;;5022499;28;20445;-74
2021/10/05 05:53:55;;;;;;;11.80;8.53;;;14.20;99.90;;;;;;5024171;28;20222;-74
2021/10/05 05:56:21;;;;;;;13.67;9.50;;;14.30;99.90;;;;;;5020696;28;20192;-76
2021/10/05 05:58:48;;;;;;;14.43;9.30;;;14.30;99.90;;;;;;5024436;28;20208;-74
2021/10/05 06:01:15;;;;;;;11.37;8.40;;;14.40;99.90;;;;;;5001596;28;20181;-74
2021/10/05 06:03:41;;;;;;;14.00;10.90;;;14.40;99.90;;;;;;5023688;28;20439;-75
2021/10/05 06:06:07;;;;;;;11.67;8.97;;;14.20;99.90;;;;;;5023230;28;20436;-74
2021/10/05 06:08:33;;;;;;;15.53;10.43;;;14.20;99.90;;;;;;5023481;28;20212;-75
2021/10/05 06:10:59;;;;;;;11.93;9.23;;;14.30;99.90;;;;;;5022812;28;20650;-75
2021/10/05 06:13:25;;;;;;;19.87;10.50;;;14.20;99.90;;;;;;5025663;28;20447;-74
2021/10/05 06:15:51;;;;;;;14.17;9.33;;;14.50;99.90;;;;;;5021147;28;20200;-72
2021/10/05 06:18:16;;;;;;;12.97;9.90;;;14.50;99.90;;;;;;5006682;28;20220;-75
2021/10/05 06:20:42;;;;;;;13.40;9.73;;;14.50;99.90;;;;;;5022818;28;20196;-73
2021/10/05 06:23:08;;;;;;;12.17;9.90;;;14.60;99.90;;;;;;5022560;28;20213;-73
2021/10/05 06:25:40;;;;;;;14.57;11.00;;;14.70;99.90;;;;;;5016584;28;20551;-72
2021/10/05 06:28:05;;;;;;;16.03;11.50;;;14.80;99.90;;;;;;5012575;28;20753;-74
2021/10/05 06:30:31;;;;;;;15.10;11.30;;;14.70;99.90;;;;;;5024553;28;20463;-73
2021/10/05 06:32:57;;;;;;;13.20;10.80;;;14.70;99.90;;;;;;5022958;28;20225;-73
2021/10/05 06:35:26;;;;;;;13.10;10.50;;;14.70;99.90;;;;;;5003638;28;20299;-72
2021/10/05 06:37:54;;;;;;;12.87;10.40;;;14.70;99.90;;;;;;5017951;28;20215;-72
2021/10/05 06:40:21;;;;;;;13.50;10.70;;;14.80;99.90;;;;;;5005776;28;22669;-73
2021/10/05 06:42:47;;;;;;;14.40;10.17;;;14.70;99.90;;;;;;5023203;28;21040;-74
2021/10/05 06:45:12;;;;;;;14.47;11.80;;;14.60;99.90;;;;;;5024297;28;20484;-73
2021/10/05 06:47:38;;;;;;;14.20;10.90;;;14.60;99.90;;;;;;5024223;28;20251;-79
2021/10/05 06:50:05;;;;;;;15.67;10.53;;;14.80;99.90;;;;;;5020865;28;20279;-74
2021/10/05 06:52:31;;;;;;;11.73;9.60;;;14.80;99.90;;;;;;5022709;28;20912;-74
2021/10/05 06:54:57;;;;;;;12.33;9.73;;;14.80;99.90;;;;;;5023282;28;20506;-73
2021/10/05 06:57:22;;;;;;;12.40;9.70;;;14.90;99.90;;;;;;5021308;28;20362;-74
2021/10/05 06:59:48;;;;;;;11.40;9.50;;;14.90;99.90;;;;;;4991888;28;20534;-73
2021/10/05 07:02:14;;;;;;;13.47;9.93;;;14.90;99.90;;;;;;5023957;28;20199;-74
2021/10/05 07:04:39;;;;;;;16.80;8.80;;;14.80;99.90;;;;;;5008447;28;20574;-74
2021/10/05 07:07:05;;;;;;;10.60;9.00;;;14.90;99.90;;;;;;5021623;28;20409;-74
2021/10/05 07:09:31;;;;;;;12.17;9.17;;;14.90;99.90;;;;;;5023945;28;20223;-74
2021/10/05 07:11:56;;;;;;;10.33;8.50;;;14.80;99.90;;;;;;5007837;28;20196;-74
2021/10/05 07:14:22;;;;;;;10.70;8.60;;;14.80;99.90;;;;;;5023453;28;20570;-74
2021/10/05 07:16:48;;;;;;;12.93;9.50;;;14.70;99.90;;;;;;5020704;28;20552;-74
2021/10/05 07:19:13;;;;;;;12.67;8.60;;;14.60;99.90;;;;;;5024352;28;20240;-74
2021/10/05 07:21:39;;;;;;;11.07;7.90;;;14.60;99.90;;;;;;5023688;28;20275;-73
2021/10/05 07:24:05;;;;;;;12.40;8.70;;;14.50;99.90;;;;;;5022371;28;20589;-74
2021/10/05 07:26:31;;;;;;;11.93;8.77;;;14.40;99.90;;;;;;5024166;28;20283;-73
2021/10/05 07:28:57;;;;;;;11.80;8.63;;;14.40;99.90;;;;;;5022179;28;20234;-73
2021/10/05 07:31:22;;;;;;;10.63;8.50;;;14.40;99.90;;;;;;5005750;28;21041;-74
2021/10/05 07:33:48;;;;;;;9.30;7.47;;;14.40;99.90;;;;;;5024365;28;20459;-73
2021/10/05 07:36:15;;;;;;;9.70;7.10;;;14.40;99.90;;;;;;5022924;28;20240;-74
2021/10/05 07:38:41;;;;;;;9.97;8.20;;;14.50;99.90;;;;;;5023151;28;20235;-74
2021/10/05 07:41:07;;;;;;;9.20;7.40;;;14.50;99.90;;;;;;5007484;28;20427;-72
2021/10/05 07:43:33;;;;;;;7.70;6.90;;;14.50;99.90;;;;;;5019709;28;20201;-74
2021/10/05 07:46:00;;;;;;;11.43;7.37;;;14.40;99.90;;;;;;5022456;28;20192;-74
2021/10/05 07:48:26;;;;;;;9.00;7.47;;;14.30;99.90;;;;;;5020109;28;20617;-74
2021/10/05 07:50:52;;;;;;;10.70;7.77;;;14.30;99.90;;;;;;5021336;28;20439;-74
2021/10/05 07:53:18;;;;;;;11.47;8.17;;;14.30;99.90;;;;;;5024031;28;20785;-74
2021/10/05 07:55:43;;;;;;;11.03;9.80;;;14.40;99.90;;;;;;5020391;28;20236;-73
2021/10/05 07:58:09;;;;;;;11.53;8.80;;;14.40;99.90;;;;;;5023879;28;20212;-76
2021/10/05 08:00:34;;;;;;;11.47;9.47;;;14.50;99.90;;;;;;5006129;28;20193;-69
2021/10/05 08:03:00;;;;;;;12.50;8.67;;;14.40;99.90;;;;;;5020834;28;20569;-69
2021/10/05 08:05:26;;;;;;;18.20;9.60;;;14.20;99.90;;;;;;5023477;28;20189;-70
2021/10/05 08:07:57;;;;;;;12.10;9.77;;;14.20;99.90;;;;;;5022850;28;20226;-69
2021/10/05 08:10:23;;;;;;;12.17;9.37;;;14.10;99.90;;;;;;5003818;28;20200;-68
2021/10/05 08:12:48;;;;;;;11.10;9.73;;;14.20;99.90;;;;;;5017992;28;20820;-68
2021/10/05 08:15:14;;;;;;;10.10;8.83;;;14.40;99.90;;;;;;5021586;28;20471;-68
2021/10/05 08:17:39;;;;;;;12.43;8.90;;;14.50;99.90;;;;;;5021854;28;20199;-68
2021/10/05 08:20:06;;;;;;;11.03;8.90;;;14.50;99.90;;;;;;5018239;28;20199;-70
2021/10/05 08:22:32;;;;;;;11.67;8.97;;;14.50;99.90;;;;;;5021077;28;20200;-69
2021/10/05 08:24:57;;;;;;;10.17;8.67;;;14.70;99.90;;;;;;5021287;28;20442;-69
2021/10/05 08:27:23;;;;;;;8.17;7.37;;;14.70;99.90;;;;;;5025617;28;20704;-69
2021/10/05 08:29:49;;;;;;;8.37;7.47;;;14.70;99.90;;;;;;5025004;28;20343;-69
2021/10/05 08:32:15;;;;;;;9.50;7.20;;;14.80;99.90;;;;;;5022164;28;20196;-70
2021/10/05 08:34:41;;;;;;;8.40;7.50;;;14.80;99.90;;;;;;5026770;28;20291;-69
2021/10/05 08:37:07;;;;;;;7.67;6.80;;;14.90;99.90;;;;;;5022172;28;20494;-70
2021/10/05 08:39:33;;;;;;;10.93;7.07;;;14.80;99.90;;;;;;5005013;28;20439;-69
2021/10/05 08:42:00;;;;;;;8.43;7.53;;;14.80;99.90;;;;;;5026462;28;20204;-69
2021/10/05 08:44:27;;;;;;;7.37;6.60;;;14.90;99.90;;;;;;5024531;28;20466;-70
2021/10/05 08:46:54;;;;;;;8.47;6.83;;;14.80;99.90;;;;;;5042510;28;20431;-69
2021/10/05 08:49:21;;;;;;;7.23;5.97;;;14.80;99.90;;;;;;5040971;28;20450;-71
2021/10/05 08:51:47;;;;;;;7.80;6.77;;;14.80;99.90;;;;;;5032782;28;20467;-68
2021/10/05 08:54:13;;;;;;;9.80;8.23;;;14.70;99.90;;;;;;5029035;28;20466;-69
2021/10/05 08:56:42;;;;;;;9.07;7.50;;;14.90;99.90;;;;;;5031995;28;20447;-70
2021/10/05 08:59:08;;;;;;;9.33;6.93;;;15.20;99.90;;;;;;5030754;28;20447;-69
2021/10/05 09:01:34;;;;;;;7.23;6.50;;;15.10;99.90;;;;;;5028226;28;20911;-70
2021/10/05 09:04:03;;;;;;;6.33;5.73;;;15.10;99.90;;;;;;5031486;28;20207;-70
2021/10/05 09:06:29;;;;;;;5.03;4.37;;;15.30;99.90;;;;;;5028318;28;20446;-70
2021/10/05 09:08:55;;;;;;;4.90;4.43;;;15.20;99.90;;;;;;5023923;28;20521;-70
2021/10/05 09:11:24;;;;;;;5.70;5.07;;;15.20;99.90;;;;;;5027463;28;20427;-70
2021/10/05 09:13:53;;;;;;;4.97;4.47;;;15.10;99.90;;;;;;5023380;28;20466;-69
2021/10/05 09:16:22;;;;;;;5.30;4.80;;;15.20;99.90;;;;;;5020235;28;20449;-69
2021/10/05 09:19:02;;;;;;;5.60;5.10;;;15.30;99.90;;;;;;5018965;28;20458;-69
2021/10/05 09:21:37;;;;;;;5.10;3.90;;;15.40;99.90;;;;;;5017718;28;20521;-69
2021/10/05 09:24:10;;;;;;;5.07;4.57;;;15.50;99.90;;;;;;5006504;28;21138;-69
2021/10/05 09:26:37;;;;;;;4.63;4.13;;;15.50;99.90;;;;;;5023225;28;20454;-69
2021/10/05 09:29:18;;;;;;;4.00;3.60;;;15.60;99.90;;;;;;5020300;28;20497;-69
2021/10/05 09:32:03;;;;;;;6.80;4.13;;;15.70;99.90;;;;;;5024283;28;20439;-67
2021/10/05 09:34:33;;;;;;;4.17;3.77;;;15.70;99.90;;;;;;5022392;28;20471;-69
2021/10/05 09:37:20;;;;;;;4.60;3.63;;;15.70;99.90;;;;;;5022288;28;20435;-68
2021/10/05 09:39:48;;;;;;;3.97;3.47;;;15.70;99.90;;;;;;5023068;28;20887;-68
2021/10/05 09:42:23;;;;;;;3.70;3.40;;;15.70;99.90;;;;;;5022840;28;20450;-68
2021/10/05 09:45:06;;;;;;;4.77;4.37;;;15.60;99.90;;;;;;5025594;28;20442;-70
2021/10/05 09:47:47;;;;;;;3.97;3.57;;;15.60;99.90;;;;;;5022067;28;20542;-69
2021/10/05 09:50:18;;;;;;;3.97;3.57;;;15.70;99.90;;;;;;5023097;28;20574;-68
2021/10/05 09:53:03;;;;;;;4.50;3.90;;;15.70;99.90;;;;;;5023068;28;20446;-68
2021/10/05 09:55:31;;;;;;;6.70;3.87;;;15.80;99.90;;;;;;5021158;28;20661;-68
2021/10/05 09:57:57;;;;;;;4.20;3.80;;;15.90;99.90;;;;;;5021975;28;20540;-70
2021/10/05 10:00:26;;;;;;;4.40;3.23;;;16.00;99.90;;;;;;5021707;28;20435;-70
2021/10/05 10:02:53;;;;;;;3.90;3.50;;;16.00;99.90;;;;;;5022201;28;20447;-69
2021/10/05 10:05:21;;;;;;;3.27;2.97;;;16.20;99.90;;;;;;5020890;28;20451;-68
2021/10/05 10:07:52;;;;;;;2.43;2.23;;;16.30;99.90;;;;;;5018188;28;20468;-67
2021/10/05 10:10:20;;;;;;;3.13;2.60;;;16.30;99.90;;;;;;5023680;28;20570;-68
2021/10/05 10:12:58;;;;;;;2.97;2.40;;;16.40;99.90;;;;;;5024128;28;20533;-68
2021/10/05 10:15:27;;;;;;;3.20;2.90;;;16.40;99.90;;;;;;5019255;28;20474;-68
2021/10/05 10:18:11;;;;;;;5.53;2.60;;;16.40;99.90;;;;;;5024581;28;20451;-68
2021/10/05 10:20:41;;;;;;;3.10;2.30;;;16.40;99.90;;;;;;5024125;28;20479;-68
2021/10/05 10:23:22;;;;;;;3.13;2.83;;;16.40;99.90;;;;;;5023367;28;20766;-69
2021/10/05 10:26:08;;;;;;;4.80;3.50;;;16.50;99.90;;;;;;5022336;28;20474;-68
2021/10/05 10:28:43;;;;;;;4.70;3.17;;;16.60;99.90;;;;;;5009633;28;20513;-69
2021/10/05 10:31:12;;;;;;;2.77;2.33;;;16.60;99.90;;;;;;5005454;28;20443;-68
2021/10/05 10:33:56;;;;;;;3.40;2.40;;;16.50;99.90;;;;;;5020269;28;20443;-69
2021/10/05 10:36:33;;;;;;;2.33;2.13;;;16.60;99.90;;;;;;5024488;28;20447;-68
2021/10/05 10:39:35;;;;;;;3.30;3.00;;;16.60;99.90;;;;;;5024965;28;22798;-69
2021/10/05 10:42:03;;;;;;;3.00;2.70;;;16.70;99.90;;;;;;5022536;28;20816;-69
2021/10/05 10:44:37;;;;;;;2.77;2.20;;;16.70;99.90;;;;;;5025109;28;20431;-69
2021/10/05 10:47:15;;;;;;;3.97;2.60;;;16.80;99.90;;;;;;5023521;28;20534;-69
2021/10/05 10:49:59;;;;;;;3.30;3.00;;;16.50;99.90;;;;;;5021724;28;20439;-69
2021/10/05 10:52:33;;;;;;;2.40;2.10;;;16.40;99.90;;;;;;5024539;28;20431;-69
2021/10/05 10:54:59;;;;;;;2.50;2.13;;;16.30;99.90;;;;;;5023786;28;20467;-67
2021/10/05 10:57:43;;;;;;;2.50;2.00;;;16.40;99.90;;;;;;5023576;28;20450;-68
2021/10/05 11:00:21;;;;;;;2.90;1.80;;;16.40;99.90;;;;;;5026491;28;20438;-69
2021/10/05 11:02:55;;;;;;;1.90;1.67;;;16.60;99.90;;;;;;5025901;28;20437;-69
2021/10/05 11:05:23;;;;;;;2.97;1.93;;;16.70;99.90;;;;;;5022767;28;20850;-69
2021/10/05 11:07:55;;;;;;;2.67;2.03;;;16.90;99.90;;;;;;5024058;28;20856;-69
2021/10/05 11:10:34;;;;;;;2.23;2.03;;;17.10;99.90;;;;;;5005838;28;20517;-68
2021/10/05 11:13:06;;;;;;;2.90;1.70;;;17.30;99.90;;;;;;5023745;28;22663;-69
2021/10/05 11:15:41;;;;;;;2.37;2.07;;;17.50;99.90;;;;;;5025574;28;20858;-69
2021/10/05 11:18:10;;;;;;;2.33;1.77;;;17.60;99.90;;;;;;5023652;28;20613;-69
2021/10/05 11:20:59;;;;;;;3.10;2.17;;;17.60;99.90;;;;;;5020926;28;20950;-69
2021/10/05 11:23:26;;;;;;;2.00;1.73;;;17.60;99.90;;;;;;5024482;28;20450;-67
2021/10/05 11:25:53;;;;;;;2.00;1.80;;;17.70;99.90;;;;;;5023727;28;20931;-67
2021/10/05 11:28:22;;;;;;;2.00;1.50;;;17.70;99.90;;;;;;5021403;28;20836;-68
2021/10/05 11:30:55;;;;;;;1.70;1.50;;;17.70;99.90;;;;;;5024656;28;21028;-68
2021/10/05 11:33:27;;;;;;;1.90;1.40;;;17.70;99.90;;;;;;5022666;28;20475;-68
2021/10/05 11:35:54;;;;;;;1.50;1.40;;;17.80;99.90;;;;;;5021652;28;20473;-68
2021/10/05 11:38:20;;;;;;;2.50;1.80;;;17.70;99.90;;;;;;5024600;28;20474;-68
2021/10/05 11:40:55;;;;;;;1.57;1.30;;;17.90;99.90;;;;;;5020603;28;20438;-69
2021/10/05 11:43:34;;;;;;;1.70;1.60;;;18.20;99.90;;;;;;5019051;28;20489;-70
2021/10/05 11:46:06;;;;;;;1.60;1.40;;;18.50;99.90;;;;;;5023759;28;20795;-69
2021/10/05 11:48:47;;;;;;;1.60;1.40;;;18.70;99.90;;;;;;5023428;28;20451;-69
2021/10/05 11:51:15;;;;;;;2.20;1.57;;;19.20;99.90;;;;;;5022406;28;20448;-69
2021/10/05 11:53:42;;;;;;;1.63;1.53;;;19.50;99.90;;;;;;5018924;28;21028;-68
2021/10/05 11:56:26;;;;;;;1.80;1.63;;;19.40;99.90;;;;;;5022410;28;20431;-67
2021/10/05 11:58:58;;;;;;;1.93;1.73;;;19.00;99.90;;;;;;5020121;28;20455;-69
2021/10/05 12:01:27;;;;;;;2.30;1.53;;;18.90;99.90;;;;;;5019391;28;20453;-69
2021/10/05 12:04:13;;;;;;;2.50;1.80;;;18.80;99.90;;;;;;5021116;28;20434;-68
2021/10/05 12:06:51;;;;;;;1.60;1.43;;;18.60;99.90;;;;;;5024991;28;20435;-68
2021/10/05 12:09:24;;;;;;;2.17;1.97;;;18.60;99.90;;;;;;5021506;28;20494;-70
2021/10/05 12:11:50;;;;;;;2.50;1.70;;;18.60;99.90;;;;;;5022447;28;20509;-68
2021/10/05 12:14:18;;;;;;;2.30;1.90;;;18.50;99.90;;;;;;5021073;28;20485;-68
2021/10/05 12:17:02;;;;;;;2.10;1.60;;;18.60;99.90;;;;;;5019481;28;20581;-68
2021/10/05 12:19:33;;;;;;;3.47;1.80;;;19.10;99.90;;;;;;5021313;28;20930;-67
2021/10/05 12:22:00;;;;;;;1.70;1.50;;;20.30;99.90;;;;;;5023360;28;20434;-68
2021/10/05 12:25:00;;;;;;;2.23;1.83;;;21.00;99.90;;;;;;5021330;28;20433;-67
2021/10/05 12:27:25;;;;;;;2.63;1.90;;;21.80;99.90;;;;;;4967590;28;20479;-67
2021/10/05 12:29:52;;;;;;;3.40;2.20;;;22.00;99.90;;;;;;5021431;28;20454;-68
2021/10/05 12:32:19;;;;;;;2.00;1.80;;;23.00;99.90;;;;;;5025669;28;20180;-68
2021/10/05 12:34:50;;;;;;;1.50;1.40;;;24.60;99.90;;;;;;5022595;28;20468;-67
2021/10/05 12:37:18;;;;;;;1.87;1.57;;;26.00;99.90;;;;;;5019604;28;20976;-68
2021/10/05 12:40:13;;;;;;;1.80;1.60;;;26.80;99.90;;;;;;5022557;28;20933;-68
2021/10/05 12:42:47;;;;;;;1.60;1.50;;;27.70;99.90;;;;;;5004786;28;20460;-69
2021/10/05 12:45:16;;;;;;;1.70;1.50;;;28.10;99.90;;;;;;5019361;28;20419;-69
2021/10/05 12:48:04;;;;;;;1.70;1.40;;;28.50;99.90;;;;;;5021038;28;20455;-68